Time;durP1;ratioP1;P1;durP2;ratioP2;P2;SDS_P1;SDS_P2;PMS_P1;PMS_P2;Temp;Humidity;BMP_temperature;BMP_pressure;BME280_temperature;BME280_humidity;BME280_pressure;Samples;Min_cycle;Max_cycle;Signal;HPM_P1;HPM_P2
2022/10/08 00:09:37;;;;;;;7.60;3.10;;;;;12.40;98251.60;;;;106338;1292;581472;-60
2022/10/08 00:12:07;;;;;;;6.40;2.90;;;;;12.40;98250.80;;;;107622;1284;370081;-61
2022/10/08 00:14:39;;;;;;;12.50;3.30;;;;;12.40;98242.80;;;;108016;1284;41211;-59
2022/10/08 00:17:09;;;;;;;7.30;2.90;;;;;12.30;98243.80;;;;108075;1271;41456;-60
2022/10/08 00:19:38;;;;;;;6.30;2.80;;;;;12.20;98240.20;;;;108210;1283;41162;-60
2022/10/08 00:22:08;;;;;;;7.80;3.40;;;;;12.10;98233.40;;;;108116;1279;41146;-59
2022/10/08 00:24:38;;;;;;;7.90;3.10;;;;;12.00;98232.00;;;;108112;1284;42335;-60
2022/10/08 00:27:11;;;;;;;9.70;4.00;;;;;11.90;98233.00;;;;108195;1284;42915;-61
2022/10/08 00:44:02;;;;;;;9.40;4.20;;;;;12.10;98215.40;;;;106433;1299;582249;-59
2022/10/08 00:46:35;;;;;;;;;;;;;12.00;98215.40;;;;107558;1284;352716;-60
2022/10/08 00:49:11;;;;;;;7.70;3.40;;;;;11.90;98218.00;;;;108045;1269;41472;-60
2022/10/08 00:51:43;;;;;;;6.70;2.90;;;;;11.80;98211.20;;;;108020;1284;41159;-60
2022/10/08 00:54:13;;;;;;;7.20;3.10;;;;;11.70;98210.40;;;;107951;1284;41556;-60
2022/10/08 00:56:44;;;;;;;7.70;3.50;;;;;11.70;98209.00;;;;108085;1283;41160;-61
2022/10/08 00:59:14;;;;;;;7.50;3.10;;;;;11.60;98209.20;;;;107989;1284;41182;-61
2022/10/08 01:01:44;;;;;;;6.60;2.90;;;;;11.60;98208.20;;;;107903;1284;41243;-60
2022/10/08 01:04:14;;;;;;;5.80;2.60;;;;;11.50;98205.60;;;;107884;1284;41282;-60
2022/10/08 01:06:55;;;;;;;8.80;3.20;;;;;11.50;98210.60;;;;107962;1284;41161;-60
2022/10/08 01:09:35;;;;;;;;;;;;;11.44;98205.00;;;;107956;1284;41869;-60
2022/10/08 01:12:43;;;;;;;7.80;2.90;;;;;11.40;98205.40;;;;107945;1284;41168;-59
2022/10/08 01:15:22;;;;;;;7.00;3.10;;;;;11.40;98200.40;;;;108039;1283;41149;-60
2022/10/08 01:17:59;;;;;;;5.10;2.40;;;;;11.32;98203.80;;;;107994;1284;41946;-60
2022/10/08 01:20:44;;;;;;;7.30;3.10;;;;;11.30;98199.40;;;;107979;1279;41151;-60
2022/10/08 01:23:35;;;;;;;6.50;2.80;;;;;11.28;98198.80;;;;108486;1277;41605;-60
2022/10/08 01:26:24;;;;;;;9.00;3.20;;;;;11.20;98200.60;;;;108499;1277;41613;-59
2022/10/08 01:29:01;;;;;;;8.00;3.30;;;;;11.16;98193.00;;;;108525;1277;41152;-60
2022/10/08 01:31:38;;;;;;;7.10;3.10;;;;;11.10;98197.40;;;;108586;1277;41861;-60
2022/10/08 01:34:25;;;;;;;7.10;3.00;;;;;11.10;98201.60;;;;108488;1277;41604;-61
2022/10/08 01:36:57;;;;;;;7.10;3.00;;;;;11.10;98194.40;;;;108488;1278;41594;-60
2022/10/08 01:39:29;;;;;;;8.10;3.50;;;;;11.00;98195.60;;;;108395;1260;41165;-60
2022/10/08 01:42:02;;;;;;;6.90;3.10;;;;;11.00;98190.40;;;;108442;1278;41165;-60
2022/10/08 01:44:46;;;;;;;7.70;3.40;;;;;10.90;98189.40;;;;108246;1277;42397;-60
2022/10/08 01:47:22;;;;;;;6.50;3.00;;;;;10.90;98192.20;;;;108592;1278;41703;-60
2022/10/08 01:50:15;;;;;;;9.90;3.60;;;;;10.80;98188.80;;;;108415;1278;41588;-60
2022/10/08 01:52:58;;;;;;;9.80;4.20;;;;;10.80;98192.60;;;;108572;1276;41632;-60
2022/10/08 01:55:37;;;;;;;12.30;4.80;;;;;10.70;98192.60;;;;108578;1272;41181;-60
2022/10/08 01:58:13;;;;;;;11.30;4.90;;;;;10.60;98192.20;;;;108334;1278;41206;-60
2022/10/08 02:00:44;;;;;;;18.00;6.20;;;;;10.40;98190.00;;;;108338;1279;41175;-61
2022/10/08 02:03:15;;;;;;;14.70;4.50;;;;;10.20;98194.20;;;;108545;1278;41169;-61
2022/10/08 02:05:49;;;;;;;10.00;3.90;;;;;10.10;98198.60;;;;108615;1272;41140;-60
2022/10/08 02:08:21;;;;;;;13.30;4.10;;;;;10.00;98195.40;;;;108559;1277;42626;-61
2022/10/08 02:10:52;;;;;;;18.70;3.40;;;;;10.00;98195.80;;;;108391;1277;41173;-60
2022/10/08 02:13:22;;;;;;;8.10;3.10;;;;;10.00;98190.60;;;;108537;1277;41146;-60
2022/10/08 02:16:06;;;;;;;;;;;;;10.00;98189.80;;;;108594;1278;41938;-60
2022/10/08 02:18:44;;;;;;;8.80;3.60;;;;;10.00;98195.20;;;;108445;1269;41189;-59
2022/10/08 02:21:26;;;;;;;8.90;3.50;;;;;9.98;98190.80;;;;108580;1278;41402;-59
2022/10/08 02:24:20;;;;;;;8.80;4.00;;;;;9.90;98194.40;;;;108604;1276;41232;-59
2022/10/08 02:26:54;;;;;;;8.40;3.90;;;;;9.90;98195.20;;;;108427;1276;41710;-60
2022/10/08 02:29:29;;;;;;;8.50;3.60;;;;;9.90;98195.00;;;;108318;1270;42494;-59
2022/10/08 02:32:03;;;;;;;9.30;3.90;;;;;9.80;98197.80;;;;108336;1278;41152;-59
2022/10/08 02:34:40;;;;;;;10.50;5.10;;;;;9.80;98194.40;;;;108465;1276;41175;-60
2022/10/08 02:37:18;;;;;;;10.80;4.20;;;;;9.80;98196.40;;;;108408;1278;41607;-60
2022/10/08 02:40:06;;;;;;;9.00;3.40;;;;;9.78;98192.40;;;;108423;1278;41280;-62
2022/10/08 02:42:39;;;;;;;9.00;3.10;;;;;9.70;98194.40;;;;108426;1277;41401;-61
2022/10/08 02:45:28;;;;;;;7.70;3.10;;;;;9.70;98195.40;;;;108294;1277;42536;-60
2022/10/08 02:48:07;;;;;;;7.30;3.10;;;;;9.70;98198.20;;;;108294;1278;41981;-60
2022/10/08 02:50:40;;;;;;;8.70;3.10;;;;;9.70;98195.40;;;;108601;1274;41283;-60
2022/10/08 02:53:13;;;;;;;7.30;3.30;;;;;9.70;98195.40;;;;108672;1271;41227;-60
2022/10/08 02:55:48;;;;;;;6.80;2.90;;;;;9.70;98192.60;;;;108694;1271;41169;-60
2022/10/08 02:58:18;;;;;;;6.00;2.80;;;;;9.70;98197.00;;;;108630;1272;41387;-61
2022/10/08 03:01:13;;;;;;;7.00;2.80;;;;;9.70;98191.20;;;;108762;1271;41924;-60
2022/10/08 03:03:47;;;;;;;7.80;3.20;;;;;9.70;98192.60;;;;108759;1271;42354;-60
2022/10/08 03:06:17;;;;;;;7.70;3.20;;;;;9.62;98190.40;;;;108727;1271;41232;-60
2022/10/08 03:08:50;;;;;;;8.20;3.60;;;;;9.60;98194.00;;;;108760;1271;41201;-60
2022/10/08 03:11:19;;;;;;;8.90;3.60;;;;;9.60;98193.60;;;;108723;1273;41237;-60
2022/10/08 03:13:50;;;;;;;7.40;3.00;;;;;9.56;98186.80;;;;108664;1265;41146;-60
2022/10/08 03:16:20;;;;;;;;;;;;;9.50;98183.80;;;;108735;1272;41697;-60
2022/10/08 03:18:51;;;;;;;8.80;3.80;;;;;9.50;98192.00;;;;108750;1272;41168;-60
2022/10/08 03:21:21;;;;;;;10.30;3.40;;;;;9.48;98188.80;;;;108721;1272;41131;-60
2022/10/08 03:23:50;;;;;;;16.30;5.90;;;;;9.40;98197.80;;;;108602;1272;41149;-60
2022/10/08 03:26:20;;;;;;;11.90;4.90;;;;;9.36;98198.00;;;;108706;1272;41159;-61
2022/10/08 03:28:52;;;;;;;9.50;4.30;;;;;9.30;98198.60;;;;108777;1270;41149;-60
2022/10/08 03:31:21;;;;;;;8.30;3.90;;;;;9.20;98200.40;;;;108776;1271;41151;-60
2022/10/08 03:33:51;;;;;;;10.70;3.80;;;;;9.20;98196.00;;;;108750;1271;41650;-60
2022/10/08 03:36:22;;;;;;;9.70;3.30;;;;;9.20;98197.20;;;;108944;1259;41945;-60
2022/10/08 03:38:51;;;;;;;;;;;;;9.20;98193.20;;;;108686;1271;41279;-60
2022/10/08 03:41:20;;;;;;;13.40;2.90;;;;;9.16;98191.80;;;;108612;1272;41457;-60
2022/10/08 03:43:50;;;;;;;8.10;3.00;;;;;9.10;98188.40;;;;108755;1271;41610;-60
2022/10/08 03:46:20;;;;;;;15.50;4.30;;;;;9.10;98183.60;;;;108816;1271;41170;-61
2022/10/08 03:48:50;;;;;;;8.90;4.00;;;;;9.10;98184.40;;;;108675;1272;41994;-61
2022/10/08 03:51:19;;;;;;;15.70;3.50;;;;;9.00;98186.40;;;;108671;1272;41156;-62
2022/10/08 03:53:48;;;;;;;6.50;2.70;;;;;8.96;98186.40;;;;108746;1264;42432;-61
2022/10/08 03:56:20;;;;;;;13.20;2.90;;;;;8.90;98184.00;;;;108701;1272;41162;-61
2022/10/08 03:59:02;;;;;;;7.00;3.10;;;;;8.90;98180.20;;;;108837;1271;41136;-61
2022/10/08 04:01:32;;;;;;;5.30;2.50;;;;;8.90;98175.20;;;;108875;1271;42105;-61
2022/10/08 04:04:01;;;;;;;6.10;2.50;;;;;8.90;98173.40;;;;108932;1271;41475;-61
2022/10/08 04:06:31;;;;;;;7.50;3.10;;;;;8.90;98172.80;;;;108966;1269;41223;-60
2022/10/08 04:09:00;;;;;;;6.00;2.50;;;;;8.90;98174.20;;;;108801;1271;41233;-61
2022/10/08 04:11:29;;;;;;;5.90;2.70;;;;;8.90;98174.60;;;;108704;1271;41166;-61
2022/10/08 04:13:59;;;;;;;6.00;2.50;;;;;8.90;98174.20;;;;108757;1271;41195;-59
2022/10/08 04:16:29;;;;;;;5.60;2.50;;;;;8.90;98172.00;;;;108711;1271;42444;-60
2022/10/08 04:18:58;;;;;;;5.20;2.50;;;;;8.90;98176.20;;;;108692;1271;42062;-60
2022/10/08 04:21:29;;;;;;;5.70;2.50;;;;;8.90;98174.20;;;;108646;1271;41155;-60
2022/10/08 04:23:58;;;;;;;6.10;2.80;;;;;8.90;98177.40;;;;108663;1272;41134;-59
2022/10/08 04:26:27;;;;;;;8.80;3.30;;;;;8.90;98179.20;;;;108585;1272;41218;-60
2022/10/08 04:28:56;;;;;;;47.20;17.40;;;;;8.90;98172.80;;;;108590;1271;41260;-59
2022/10/08 04:31:26;;;;;;;57.30;22.40;;;;;8.90;98167.60;;;;108659;1276;41244;-60
2022/10/08 04:33:55;;;;;;;44.60;21.30;;;;;8.90;98168.60;;;;108741;1272;41543;-60
2022/10/08 04:36:24;;;;;;;27.20;13.90;;;;;8.90;98170.40;;;;108784;1272;41173;-60
2022/10/08 04:38:54;;;;;;;16.50;8.30;;;;;8.90;98170.00;;;;108808;1271;42527;-59
2022/10/08 04:41:25;;;;;;;10.10;4.90;;;;;8.90;98168.60;;;;108752;1271;41237;-60
2022/10/08 04:43:58;;;;;;;8.50;3.70;;;;;8.90;98166.40;;;;108754;1272;41502;-59
2022/10/08 04:46:27;;;;;;;7.00;3.30;;;;;8.90;98163.20;;;;108764;1271;41170;-61
2022/10/08 04:48:57;;;;;;;6.80;2.80;;;;;8.94;98167.80;;;;108813;1271;41152;-60
2022/10/08 04:51:26;;;;;;;7.10;3.10;;;;;8.96;98160.20;;;;108823;1271;41149;-61
2022/10/08 04:53:56;;;;;;;6.80;2.80;;;;;9.00;98160.80;;;;109046;1271;41149;-62
2022/10/08 04:56:28;;;;;;;5.50;2.60;;;;;9.00;98158.20;;;;108982;1263;41141;-61
2022/10/08 04:58:58;;;;;;;5.40;2.50;;;;;9.00;98161.80;;;;108799;1267;41141;-60
2022/10/08 05:01:29;;;;;;;5.70;2.50;;;;;9.00;98159.60;;;;108845;1266;41166;-60
2022/10/08 05:03:58;;;;;;;5.90;2.50;;;;;9.00;98153.40;;;;108908;1272;41154;-60
2022/10/08 05:06:28;;;;;;;6.00;2.50;;;;;9.00;98158.20;;;;108865;1259;41938;-59
2022/10/08 05:21:41;;;;;;;11.20;5.40;;;;;9.56;98156.80;;;;106603;1298;581394;-59
2022/10/08 05:24:10;;;;;;;19.50;6.00;;;;;9.60;98158.40;;;;107707;1277;246533;-60
2022/10/08 05:26:40;;;;;;;13.50;6.60;;;;;9.50;98160.00;;;;108381;1269;41143;-60
2022/10/08 05:29:27;;;;;;;13.40;7.00;;;;;9.50;98162.00;;;;108221;1284;41512;-60
2022/10/08 05:31:56;;;;;;;15.90;8.80;;;;;9.50;98161.80;;;;108217;1273;41228;-60
2022/10/08 05:34:25;;;;;;;15.90;6.90;;;;;9.50;98165.40;;;;108273;1270;42334;-60
2022/10/08 05:36:54;;;;;;;13.50;6.80;;;;;9.50;98160.80;;;;108194;1284;41257;-60
2022/10/08 05:39:22;;;;;;;16.20;8.40;;;;;9.58;98162.00;;;;108200;1276;40944;-60
2022/10/08 05:41:52;;;;;;;15.70;7.20;;;;;9.60;98163.00;;;;108422;1275;41155;-59
2022/10/08 05:44:21;;;;;;;14.20;7.20;;;;;9.70;98159.80;;;;108327;1267;41181;-57
2022/10/08 05:46:50;;;;;;;13.30;6.00;;;;;9.80;98161.80;;;;108280;1272;41166;-60
2022/10/08 05:49:21;;;;;;;10.80;5.20;;;;;9.90;98162.20;;;;108405;1280;41144;-60
2022/10/08 05:51:50;;;;;;;12.20;5.90;;;;;10.00;98163.60;;;;108424;1267;41142;-59
2022/10/08 05:54:19;;;;;;;11.60;5.70;;;;;10.10;98166.00;;;;108363;1276;41151;-59
2022/10/08 05:56:48;;;;;;;15.20;6.00;;;;;10.20;98160.40;;;;108406;1276;41721;-60
2022/10/08 05:59:22;;;;;;;13.20;6.60;;;;;10.22;98159.00;;;;108208;1280;41148;-60
2022/10/08 06:01:51;;;;;;;13.90;6.10;;;;;10.30;98157.20;;;;108427;1280;41694;-61
2022/10/08 06:04:19;;;;;;;10.80;5.40;;;;;10.40;98156.00;;;;108425;1266;41165;-61
2022/10/08 06:06:48;;;;;;;11.20;5.90;;;;;10.50;98158.20;;;;108356;1281;41160;-61
2022/10/08 06:09:18;;;;;;;11.90;6.10;;;;;10.60;98162.60;;;;108180;1281;41184;-61
2022/10/08 06:24:20;;;;;;;10.90;5.30;;;;;11.74;98171.40;;;;106131;1298;581660;-60
2022/10/08 06:26:49;;;;;;;10.50;5.00;;;;;12.00;98169.40;;;;107535;1287;363009;-59
2022/10/08 06:29:17;;;;;;;10.50;5.00;;;;;12.00;98167.80;;;;108110;1284;41155;-59
2022/10/08 06:31:47;;;;;;;8.80;4.50;;;;;12.10;98168.60;;;;108146;1280;41156;-60
2022/10/08 06:34:16;;;;;;;9.80;4.40;;;;;12.12;98164.80;;;;108120;1283;41155;-61
2022/10/08 06:49:54;;;;;;;9.70;4.00;;;;;13.36;98161.20;;;;106469;1282;581512;-60
2022/10/08 06:52:23;;;;;;;8.80;4.10;;;;;13.50;98162.20;;;;107830;1285;201725;-61
2022/10/08 06:54:51;;;;;;;9.50;4.20;;;;;13.52;98161.80;;;;108115;1281;41267;-60
2022/10/08 06:57:21;;;;;;;8.80;4.20;;;;;13.60;98158.60;;;;108079;1281;41460;-59
2022/10/08 06:59:53;;;;;;;8.30;3.70;;;;;13.70;98149.40;;;;108095;1279;41487;-61
2022/10/08 07:02:21;;;;;;;9.20;4.30;;;;;13.80;98152.40;;;;108130;1281;41160;-60
2022/10/08 07:04:50;;;;;;;9.10;4.10;;;;;13.90;98149.00;;;;108301;1281;41623;-60
2022/10/08 07:07:19;;;;;;;8.90;3.80;;;;;14.06;98152.20;;;;108114;1281;41171;-60
2022/10/08 07:09:48;;;;;;;8.20;3.70;;;;;14.20;98155.00;;;;108574;1275;41863;-60
2022/10/08 07:12:16;;;;;;;9.00;3.80;;;;;14.40;98158.60;;;;108588;1275;41551;-61
2022/10/08 07:14:45;;;;;;;9.10;3.70;;;;;14.60;98152.20;;;;108603;1270;41675;-61
2022/10/08 07:17:15;;;;;;;8.80;3.30;;;;;14.78;98153.00;;;;108594;1260;42109;-60
2022/10/08 07:19:44;;;;;;;8.20;3.40;;;;;15.00;98152.60;;;;108681;1275;40751;-60
2022/10/08 07:22:12;;;;;;;6.60;3.00;;;;;15.20;98151.00;;;;108612;1275;42842;-59
2022/10/08 07:24:41;;;;;;;5.90;3.00;;;;;15.44;98146.80;;;;108780;1265;41937;-60
2022/10/08 07:27:10;;;;;;;7.90;3.40;;;;;15.62;98138.80;;;;108721;1272;41903;-61
2022/10/08 07:29:38;;;;;;;7.40;3.10;;;;;15.86;98140.20;;;;108876;1271;41285;-60
2022/10/08 07:32:07;;;;;;;7.20;3.20;;;;;16.10;98137.00;;;;108772;1271;41609;-60
2022/10/08 07:34:36;;;;;;;7.20;3.10;;;;;16.22;98129.40;;;;108788;1272;41145;-60
2022/10/08 07:37:04;;;;;;;7.30;3.10;;;;;16.40;98129.00;;;;108805;1272;41139;-60
2022/10/08 07:39:32;;;;;;;7.50;3.20;;;;;16.50;98126.20;;;;108855;1272;41150;-60
2022/10/08 07:42:01;;;;;;;8.20;3.50;;;;;16.60;98124.80;;;;108909;1271;41146;-59
2022/10/08 07:44:29;;;;;;;9.10;3.20;;;;;16.80;98125.00;;;;108880;1257;41240;-59
2022/10/08 07:46:58;;;;;;;10.00;3.60;;;;;17.00;98120.40;;;;108695;1271;41165;-60
2022/10/08 07:49:27;;;;;;;8.20;3.10;;;;;17.14;98118.60;;;;108706;1272;41145;-60
2022/10/08 07:51:56;;;;;;;8.30;3.40;;;;;17.30;98122.00;;;;108636;1272;41236;-59
2022/10/08 07:54:24;;;;;;;8.60;3.10;;;;;17.40;98119.60;;;;108574;1271;41598;-59
2022/10/08 07:56:53;;;;;;;7.00;3.10;;;;;17.58;98115.80;;;;108670;1267;41233;-60
2022/10/08 07:59:22;;;;;;;8.00;3.10;;;;;17.70;98115.40;;;;108833;1267;42075;-61
2022/10/08 08:01:50;;;;;;;6.40;2.80;;;;;17.82;98117.60;;;;108664;1272;41595;-60
2022/10/08 08:04:19;;;;;;;7.60;3.30;;;;;18.00;98114.20;;;;108805;1267;41368;-61
2022/10/08 08:06:47;;;;;;;7.30;3.00;;;;;18.10;98112.00;;;;108748;1270;41243;-60
2022/10/08 08:09:17;;;;;;;7.30;3.10;;;;;18.30;98113.00;;;;108977;1270;41920;-60
2022/10/08 08:11:47;;;;;;;6.00;2.70;;;;;18.42;98107.40;;;;108839;1272;41242;-61
2022/10/08 08:14:16;;;;;;;6.80;2.80;;;;;18.60;98110.60;;;;108820;1272;41602;-61
2022/10/08 08:16:46;;;;;;;8.00;3.00;;;;;18.90;98109.20;;;;108850;1271;41248;-61
2022/10/08 08:19:14;;;;;;;8.10;3.20;;;;;19.02;98100.00;;;;108801;1271;41229;-61
2022/10/08 08:21:43;;;;;;;6.70;2.80;;;;;19.20;98104.40;;;;108812;1261;42097;-61
2022/10/08 08:24:14;;;;;;;7.00;3.00;;;;;19.52;98099.80;;;;108776;1272;41434;-62
2022/10/08 08:26:42;;;;;;;6.90;2.70;;;;;19.86;98098.60;;;;108804;1272;41297;-61
2022/10/08 08:29:16;;;;;;;6.00;2.60;;;;;20.10;98100.40;;;;108743;1272;42664;-62
2022/10/08 08:31:48;;;;;;;8.80;3.20;;;;;20.50;98092.20;;;;108745;1271;41686;-61
2022/10/08 08:34:21;;;;;;;7.50;3.00;;;;;20.60;98090.60;;;;108833;1268;41188;-60
2022/10/08 08:36:52;;;;;;;6.00;2.50;;;;;20.80;98086.20;;;;108866;1272;41909;-61
2022/10/08 08:39:22;;;;;;;7.40;2.90;;;;;21.30;98083.80;;;;108860;1267;41524;-60
2022/10/08 08:41:51;;;;;;;7.50;3.10;;;;;21.60;98075.20;;;;108940;1262;41152;-62
2022/10/08 08:44:27;;;;;;;6.50;2.70;;;;;21.84;98072.40;;;;108763;1272;41393;-62
2022/10/08 08:46:59;;;;;;;5.40;2.30;;;;;22.40;98068.40;;;;108882;1272;41138;-61
2022/10/08 08:49:32;;;;;;;7.00;2.70;;;;;23.10;98072.60;;;;108893;1270;41276;-61
2022/10/08 08:52:03;;;;;;;6.90;2.80;;;;;23.64;98064.80;;;;108717;1267;41142;-61
2022/10/08 08:54:32;;;;;;;7.50;2.40;;;;;24.26;98059.80;;;;108645;1267;41156;-61
2022/10/08 08:57:35;;;;;;;7.10;2.90;;;;;24.88;98065.00;;;;108615;1271;41153;-61
2022/10/08 09:00:17;;;;;;;6.20;2.40;;;;;25.14;98059.20;;;;108684;1272;41557;-61
2022/10/08 09:03:03;;;;;;;4.70;2.30;;;;;25.72;98060.00;;;;108779;1272;41484;-62
2022/10/08 09:05:34;;;;;;;6.60;2.20;;;;;26.46;98053.60;;;;108639;1267;42019;-62
2022/10/08 09:08:31;;;;;;;6.10;2.70;;;;;26.78;98045.40;;;;108672;1272;41209;-61
2022/10/08 09:11:02;;;;;;;7.00;2.40;;;;;26.70;98044.40;;;;108635;1272;41145;-61
2022/10/08 09:13:59;;;;;;;5.80;2.30;;;;;27.08;98042.20;;;;108907;1272;41930;-61
2022/10/08 09:16:27;;;;;;;8.20;2.60;;;;;27.50;98034.40;;;;108586;1272;41167;-61
2022/10/08 09:18:56;;;;;;;10.20;2.80;;;;;27.90;98029.60;;;;108647;1272;42301;-61
2022/10/08 09:21:29;;;;;;;6.70;2.70;;;;;28.00;98023.80;;;;108894;1272;41148;-61
2022/10/08 09:23:58;;;;;;;6.00;2.50;;;;;28.18;98017.60;;;;108932;1271;41142;-61
2022/10/08 09:26:34;;;;;;;8.20;2.70;;;;;28.20;98020.40;;;;108797;1271;41153;-61
2022/10/08 09:29:03;;;;;;;6.30;2.40;;;;;28.78;98017.00;;;;108868;1267;41166;-61
2022/10/08 09:31:47;;;;;;;7.40;2.90;;;;;29.30;98013.20;;;;108875;1272;41326;-62
2022/10/08 09:34:17;;;;;;;5.80;2.50;;;;;29.60;98004.20;;;;108683;1271;41149;-62
2022/10/08 09:36:53;;;;;;;;;;;;;29.70;98004.60;;;;108774;1271;41589;-63
2022/10/08 09:39:29;;;;;;;8.40;2.70;;;;;30.04;98002.20;;;;109059;1267;41145;-61
2022/10/08 09:42:06;;;;;;;6.50;2.50;;;;;30.42;97997.60;;;;108974;1270;42394;-62
2022/10/08 09:44:55;;;;;;;6.20;2.20;;;;;30.98;97993.80;;;;109129;1265;42008;-61
2022/10/08 09:47:25;;;;;;;6.20;2.50;;;;;31.84;97994.40;;;;109506;1265;41693;-61
2022/10/08 09:50:18;;;;;;;6.00;2.20;;;;;32.10;97996.20;;;;109336;1265;41335;-61
2022/10/08 09:52:49;;;;;;;6.00;2.40;;;;;32.28;97989.20;;;;109500;1264;41423;-61
2022/10/08 09:55:26;;;;;;;5.90;2.40;;;;;31.80;97987.20;;;;109469;1257;41139;-61
2022/10/08 09:57:59;;;;;;;6.60;2.30;;;;;31.90;97982.60;;;;109460;1264;41139;-61
2022/10/08 10:00:30;;;;;;;4.70;2.00;;;;;31.90;97978.60;;;;109484;1265;41152;-61
2022/10/08 10:02:59;;;;;;;6.00;2.40;;;;;32.52;97972.00;;;;109438;1265;41152;-62
2022/10/08 10:05:31;;;;;;;5.10;2.10;;;;;32.70;97970.00;;;;109456;1254;41135;-62
2022/10/08 10:08:00;;;;;;;5.30;2.00;;;;;33.00;97969.00;;;;109199;1253;41133;-61
2022/10/08 10:10:37;;;;;;;5.40;2.20;;;;;33.74;97963.00;;;;109349;1261;41129;-61
2022/10/08 10:13:11;;;;;;;6.60;2.10;;;;;34.34;97956.00;;;;109290;1265;41610;-61
2022/10/08 10:15:44;;;;;;;4.80;2.20;;;;;35.02;97950.20;;;;109236;1265;41680;-61
2022/10/08 10:18:19;;;;;;;6.50;2.50;;;;;35.36;97942.00;;;;109287;1251;42930;-61
2022/10/08 10:20:57;;;;;;;9.00;2.50;;;;;34.38;97941.20;;;;109249;1265;41623;-61
2022/10/08 10:23:39;;;;;;;5.40;2.20;;;;;33.76;97945.00;;;;109136;1265;42535;-61
2022/10/08 10:26:12;;;;;;;4.90;2.20;;;;;33.90;97945.00;;;;109165;1256;41170;-62
2022/10/08 10:28:49;;;;;;;5.50;2.10;;;;;33.68;97945.60;;;;109559;1265;41668;-62
2022/10/08 10:31:44;;;;;;;6.50;2.20;;;;;33.60;97937.60;;;;109446;1265;41130;-61
2022/10/08 10:34:18;;;;;;;5.90;2.40;;;;;33.76;97945.40;;;;109393;1265;41354;-61
2022/10/08 10:36:50;;;;;;;5.50;2.20;;;;;33.90;97937.20;;;;109253;1265;41913;-61
2022/10/08 10:39:37;;;;;;;4.70;1.90;;;;;34.66;97930.80;;;;109511;1261;41135;-63
2022/10/08 10:42:27;;;;;;;5.40;2.50;;;;;35.94;97928.00;;;;109519;1264;41437;-63
2022/10/08 10:45:19;;;;;;;7.00;2.90;;;;;35.70;97920.60;;;;109368;1257;41168;-62
2022/10/08 10:47:52;;;;;;;5.80;2.40;;;;;35.80;97917.20;;;;109376;1265;42186;-62
2022/10/08 10:50:56;;;;;;;7.10;2.50;;;;;36.40;97908.20;;;;109527;1265;41314;-62
2022/10/08 10:54:03;;;;;;;5.80;2.10;;;;;35.92;97908.60;;;;109415;1265;41141;-62
2022/10/08 10:56:37;;;;;;;4.00;2.00;;;;;36.02;97897.40;;;;109035;1265;41957;-62
2022/10/08 10:59:14;;;;;;;3.90;1.60;;;;;36.32;97893.60;;;;109340;1265;41132;-62
2022/10/08 11:02:15;;;;;;;5.90;1.90;;;;;36.80;97895.20;;;;109461;1265;41583;-61
2022/10/08 11:04:54;;;;;;;5.80;2.00;;;;;37.14;97891.40;;;;109617;1260;41119;-61
2022/10/08 11:07:47;;;;;;;6.20;2.10;;;;;37.40;97893.40;;;;109488;1251;41150;-62
2022/10/08 11:10:34;;;;;;;4.10;1.80;;;;;37.50;97881.60;;;;109448;1251;41142;-62
2022/10/08 11:13:22;;;;;;;4.40;1.90;;;;;37.72;97878.00;;;;109615;1254;41226;-62
2022/10/08 11:16:21;;;;;;;5.20;1.90;;;;;37.60;97876.00;;;;109530;1265;41127;-61
2022/10/08 11:18:58;;;;;;;5.50;2.00;;;;;37.70;97877.20;;;;109453;1264;41567;-61
2022/10/08 11:21:45;;;;;;;6.30;2.00;;;;;37.50;97871.60;;;;109390;1265;41442;-62
2022/10/08 11:24:36;;;;;;;5.80;2.00;;;;;36.64;97869.20;;;;109302;1265;41700;-63
2022/10/08 11:27:04;;;;;;;5.40;2.00;;;;;36.80;97865.80;;;;109133;1252;41469;-62
2022/10/08 11:30:05;;;;;;;4.60;1.70;;;;;37.06;97858.40;;;;109218;1263;41339;-62
2022/10/08 11:32:34;;;;;;;6.10;1.90;;;;;38.04;97852.80;;;;109218;1265;41139;-62
2022/10/08 11:35:03;;;;;;;;;;;;;38.04;97851.40;;;;109155;1261;41764;-62
2022/10/08 11:37:36;;;;;;;5.80;1.80;;;;;38.18;97848.20;;;;109367;1258;41691;-62
2022/10/08 11:40:17;;;;;;;3.90;1.80;;;;;38.34;97845.80;;;;109476;1260;41661;-62
2022/10/08 11:43:19;;;;;;;2.90;1.60;;;;;38.50;97845.00;;;;109341;1265;41611;-62
2022/10/08 11:46:27;;;;;;;3.20;1.60;;;;;39.00;97840.40;;;;109487;1265;41920;-63
2022/10/08 11:49:01;;;;;;;5.20;1.90;;;;;39.46;97836.20;;;;109467;1265;41682;-63
2022/10/08 11:51:32;;;;;;;4.10;1.70;;;;;39.56;97828.40;;;;109481;1260;41218;-63
2022/10/08 11:54:12;;;;;;;4.60;1.80;;;;;40.08;97828.40;;;;109190;1265;41224;-62
2022/10/08 11:56:41;;;;;;;5.70;2.00;;;;;40.00;97821.60;;;;109394;1265;41165;-62
2022/10/08 11:59:35;;;;;;;4.50;2.00;;;;;39.42;97823.20;;;;109278;1265;41234;-62
2022/10/08 12:02:28;;;;;;;3.70;1.80;;;;;39.00;97823.40;;;;109368;1265;41591;-62
2022/10/08 12:04:59;;;;;;;4.80;1.90;;;;;39.08;97820.60;;;;109395;1265;41128;-60
2022/10/08 12:07:38;;;;;;;3.90;1.80;;;;;39.60;97815.60;;;;109382;1252;41930;-62
2022/10/08 12:10:24;;;;;;;4.50;1.90;;;;;39.46;97806.00;;;;109369;1265;41165;-62
2022/10/08 12:12:52;;;;;;;4.00;1.80;;;;;39.96;97802.00;;;;109460;1264;40828;-63
2022/10/08 12:15:26;;;;;;;6.10;2.30;;;;;40.10;97797.20;;;;109505;1265;41148;-61
2022/10/08 12:18:22;;;;;;;4.60;2.00;;;;;38.90;97795.80;;;;109408;1264;41646;-62
2022/10/08 12:21:15;;;;;;;5.70;2.00;;;;;37.90;97790.40;;;;109497;1265;41610;-62
2022/10/08 12:23:44;;;;;;;4.10;1.90;;;;;37.60;97789.80;;;;109402;1265;41415;-62
2022/10/08 12:26:14;;;;;;;5.10;1.90;;;;;37.78;97790.00;;;;109536;1265;41227;-62
2022/10/08 12:28:49;;;;;;;4.60;1.90;;;;;37.78;97791.80;;;;109516;1264;41133;-62
2022/10/08 12:31:22;;;;;;;5.60;1.80;;;;;38.04;97793.80;;;;109506;1255;40818;-62
2022/10/08 12:34:16;;;;;;;4.40;1.90;;;;;38.74;97795.60;;;;109455;1264;41141;-61
2022/10/08 12:36:54;;;;;;;5.50;1.80;;;;;39.60;97791.20;;;;109444;1265;41143;-63
2022/10/08 12:39:32;;;;;;;4.70;1.80;;;;;39.94;97791.60;;;;109352;1265;42208;-63
2022/10/08 12:42:23;;;;;;;4.00;1.80;;;;;40.38;97787.80;;;;109255;1265;41493;-63
2022/10/08 12:44:57;;;;;;;6.40;2.00;;;;;41.16;97782.80;;;;109655;1261;41136;-63
2022/10/08 12:47:51;;;;;;;4.80;1.90;;;;;40.48;97785.00;;;;109411;1266;41141;-62
2022/10/08 12:50:41;;;;;;;4.70;1.80;;;;;38.34;97777.00;;;;109099;1268;42002;-61
2022/10/08 12:53:11;;;;;;;5.20;2.10;;;;;37.90;97774.80;;;;109257;1265;41287;-61
2022/10/08 12:55:50;;;;;;;4.50;1.90;;;;;37.02;97775.40;;;;109340;1266;42366;-61
2022/10/08 12:58:23;;;;;;;5.40;2.00;;;;;36.82;97779.60;;;;109279;1263;42512;-62
2022/10/08 13:00:58;;;;;;;3.60;1.70;;;;;36.48;97772.40;;;;109065;1265;41805;-62
2022/10/08 13:03:27;;;;;;;3.80;1.70;;;;;36.24;97770.40;;;;109104;1260;41134;-62
2022/10/08 13:05:56;;;;;;;;;;;;;36.76;97771.60;;;;109078;1268;41142;-62
2022/10/08 13:08:33;;;;;;;5.00;2.00;;;;;36.62;97768.60;;;;109180;1268;41606;-61
2022/10/08 13:11:14;;;;;;;4.50;2.00;;;;;35.36;97767.00;;;;109280;1254;41149;-63
2022/10/08 13:13:48;;;;;;;4.60;2.10;;;;;34.94;97769.60;;;;109417;1258;42171;-63
2022/10/08 13:16:20;;;;;;;4.90;2.00;;;;;34.80;97768.00;;;;109143;1268;41713;-62
2022/10/08 13:18:56;;;;;;;6.00;1.90;;;;;35.42;97765.20;;;;109138;1268;41160;-61
2022/10/08 13:21:31;;;;;;;4.40;1.80;;;;;36.30;97764.40;;;;109074;1266;41171;-62
2022/10/08 13:24:10;;;;;;;5.40;2.00;;;;;37.00;97761.60;;;;109130;1268;41164;-62
2022/10/08 13:26:49;;;;;;;5.20;1.80;;;;;37.58;97758.80;;;;109166;1263;41610;-62
2022/10/08 13:29:20;;;;;;;5.10;1.80;;;;;38.00;97750.00;;;;109217;1263;41625;-62
2022/10/08 13:31:58;;;;;;;6.50;2.20;;;;;38.08;97753.80;;;;109149;1268;41297;-62
2022/10/08 14:07:03;;;;;;;4.80;2.00;;;;;34.58;97740.40;;;;106438;1300;581421;-63
2022/10/08 14:09:32;;;;;;;6.60;2.40;;;;;34.96;97738.20;;;;107603;1284;374305;-62
2022/10/08 14:12:04;;;;;;;6.80;2.00;;;;;35.00;97732.20;;;;108009;1284;41152;-62
2022/10/08 14:14:32;;;;;;;5.10;2.00;;;;;34.90;97738.00;;;;108161;1282;41407;-62
2022/10/08 14:17:01;;;;;;;4.00;1.90;;;;;34.70;97734.80;;;;108111;1284;41141;-62
2022/10/08 14:19:29;;;;;;;6.00;2.30;;;;;34.30;97735.40;;;;108191;1281;41151;-62
2022/10/08 14:21:58;;;;;;;4.30;1.90;;;;;33.90;97741.20;;;;108174;1284;41157;-62